In Rescue
 
Open Full Screen Window  High Contrast Mode
Wind Gusting 00 knots
04
November 29, 2022 9:32 AM CST
Present Weather: Light Snow
Weather Information
Wind Direction
  340 °
Wind Speed
  04 kt (5 mph)
Wind Gust
  00 kt (0 mph)
Altimeter
29.70 in
Visibility
3/4 SM
Temperature
-03° C
27° F
Dewpoint
-09° C
16° F
Humidity
64%
1hr Rain Fall
00.00 in.
24hr Rain Fall
00.00 in.
Sky Condition
VV @ 500 ft
IFR

METAR KCBG 291532Z AUTO 34004KT 3/4SM -SN VV005 M03/M09 A2970 RMK AO2

FAA Disclaimer: The data displayed is for advisory purposes only and is not to be used for flight planning or operations.